SWR733 EIDW-BIKF
Flight info
| Callsign | SWR733 |
|---|---|
| Flight time | N/A |
| Altitude | 38000 |
| Route | SUROX8E SUROX DCT NIPIT DCT LUTOV DCT AGORI/M083F380 DCT 6120N DCT BASLU BASLU4N |
| Aircraft | A346/H-SDE2E3FGHIJ3J4J5M1RWXY/LB1D1 |
Departure
| Time | 2026-05-04 12:30 |
|---|---|
| Airport | Dublin Airport (EIDW) |
Arrival
| Time | N/A |
|---|---|
| Airport | Keflavik International Airport (BIKF) |
| Time | Latitude | Longitude | Altitude | Speed | Heading |
|---|---|---|---|---|---|
| 2026-05-04 12:29 | 53.55064 | -5.99614 | 9595 ft | 292 kts | 349° |
| 2026-05-04 12:30 | 53.57067 | -6.00265 | 10676 ft | 289 kts | 348° |
| 2026-05-04 12:30 | 53.59074 | -6.00921 | 11391 ft | 302 kts | 348° |
| 2026-05-04 12:30 | 53.61204 | -6.01616 | 11878 ft | 320 kts | 349° |
| 2026-05-04 12:30 | 53.63424 | -6.02337 | 12344 ft | 338 kts | 349° |
| 2026-05-04 12:31 | 53.65800 | -6.03107 | 12793 ft | 357 kts | 349° |
| 2026-05-04 12:31 | 53.68302 | -6.03917 | 13222 ft | 375 kts | 349° |
| 2026-05-04 12:31 | 53.70873 | -6.04982 | 13862 ft | 385 kts | 340° |
| 2026-05-04 12:31 | 53.73261 | -6.07051 | 14671 ft | 388 kts | 326° |
| 2026-05-04 12:32 | 53.75320 | -6.10064 | 15442 ft | 393 kts | 314° |
| 2026-05-04 12:32 | 53.79030 | -6.16974 | 16099 ft | 398 kts | 312° |
| 2026-05-04 12:32 | 53.80872 | -6.20465 | 16092 ft | 397 kts | 312° |
| 2026-05-04 12:33 | 53.82718 | -6.23938 | 16095 ft | 397 kts | 313° |
| 2026-05-04 12:33 | 53.84559 | -6.27381 | 16091 ft | 397 kts | 313° |
| 2026-05-04 12:33 | 53.86422 | -6.30859 | 16093 ft | 397 kts | 313° |
| 2026-05-04 12:33 | 53.88290 | -6.34341 | 16091 ft | 397 kts | 313° |
| 2026-05-04 12:34 | 53.90150 | -6.37811 | 16093 ft | 397 kts | 313° |
| 2026-05-04 12:34 | 53.92009 | -6.41284 | 16089 ft | 396 kts | 313° |
| 2026-05-04 12:34 | 53.93841 | -6.44713 | 16089 ft | 396 kts | 312° |
| 2026-05-04 12:34 | 53.95440 | -6.48527 | 16081 ft | 397 kts | 299° |
| 2026-05-04 12:35 | 53.96458 | -6.52888 | 16087 ft | 398 kts | 285° |
| 2026-05-04 12:35 | 53.96923 | -6.57545 | 16096 ft | 399 kts | 278° |
| 2026-05-04 12:35 | 53.97237 | -6.62237 | 16090 ft | 399 kts | 277° |
| 2026-05-04 12:35 | 53.97533 | -6.66941 | 16089 ft | 399 kts | 277° |
| 2026-05-04 12:36 | 53.97834 | -6.71646 | 16088 ft | 399 kts | 277° |
| 2026-05-04 12:36 | 53.98141 | -6.76341 | 16089 ft | 399 kts | 277° |
| 2026-05-04 12:36 | 53.98454 | -6.81044 | 16091 ft | 399 kts | 277° |
| 2026-05-04 12:36 | 53.98766 | -6.85746 | 16090 ft | 399 kts | 277° |
| 2026-05-04 12:37 | 53.99074 | -6.90376 | 16088 ft | 399 kts | 277° |
| 2026-05-04 12:37 | 53.99426 | -6.95062 | 16083 ft | 399 kts | 281° |
| 2026-05-04 12:37 | 54.00108 | -6.99627 | 16088 ft | 398 kts | 289° |
| 2026-05-04 12:37 | 54.01194 | -7.04009 | 16278 ft | 407 kts | 298° |
| 2026-05-04 12:38 | 54.02563 | -7.08246 | 17160 ft | 406 kts | 300° |
| 2026-05-04 12:38 | 54.03965 | -7.12424 | 18103 ft | 407 kts | 301° |
| 2026-05-04 12:38 | 54.05383 | -7.16641 | 18775 ft | 413 kts | 301° |
| 2026-05-04 12:38 | 54.06819 | -7.20937 | 19390 ft | 419 kts | 301° |
| 2026-05-04 12:39 | 54.08250 | -7.25248 | 20036 ft | 423 kts | 301° |
| 2026-05-04 12:39 | 54.09704 | -7.29648 | 20695 ft | 428 kts | 301° |
| 2026-05-04 12:39 | 54.11169 | -7.34094 | 21342 ft | 432 kts | 301° |
| 2026-05-04 12:39 | 54.12650 | -7.38604 | 21994 ft | 437 kts | 301° |
| 2026-05-04 12:40 | 54.14141 | -7.43154 | 22604 ft | 441 kts | 301° |
| 2026-05-04 12:40 | 54.15633 | -7.47717 | 23240 ft | 446 kts | 301° |
| 2026-05-04 12:40 | 54.17153 | -7.52373 | 23822 ft | 450 kts | 301° |
| 2026-05-04 12:40 | 54.18686 | -7.57076 | 24356 ft | 454 kts | 301° |
| 2026-05-04 12:41 | 54.20228 | -7.61816 | 24914 ft | 457 kts | 301° |
| 2026-05-04 12:41 | 54.21776 | -7.66587 | 25471 ft | 459 kts | 301° |
| 2026-05-04 12:41 | 54.23327 | -7.71380 | 26034 ft | 462 kts | 301° |
| 2026-05-04 12:41 | 54.24888 | -7.76210 | 26588 ft | 464 kts | 301° |
| 2026-05-04 12:42 | 54.26431 | -7.80998 | 27118 ft | 467 kts | 301° |
| 2026-05-04 12:42 | 54.28008 | -7.85898 | 27663 ft | 469 kts | 301° |
| 2026-05-04 12:42 | 54.29585 | -7.90811 | 28183 ft | 472 kts | 301° |
| 2026-05-04 12:42 | 54.31168 | -7.95753 | 28740 ft | 474 kts | 300° |
| 2026-05-04 12:43 | 54.32758 | -8.00732 | 29472 ft | 472 kts | 300° |
| 2026-05-04 12:43 | 54.34328 | -8.05657 | 30289 ft | 467 kts | 300° |
| 2026-05-04 12:43 | 54.35880 | -8.10534 | 31007 ft | 464 kts | 300° |
| 2026-05-04 12:43 | 54.37403 | -8.15332 | 31632 ft | 462 kts | 300° |
| 2026-05-04 12:44 | 54.38937 | -8.20175 | 32215 ft | 461 kts | 300° |
| 2026-05-04 12:44 | 54.40487 | -8.25078 | 32804 ft | 460 kts | 300° |
| 2026-05-04 12:44 | 54.41994 | -8.29852 | 33409 ft | 459 kts | 300° |
| 2026-05-04 12:44 | 54.43577 | -8.34603 | 34017 ft | 457 kts | 302° |
| 2026-05-04 12:45 | 54.45295 | -8.39199 | 34531 ft | 455 kts | 305° |
| 2026-05-04 12:45 | 54.47145 | -8.43621 | 35019 ft | 454 kts | 308° |
| 2026-05-04 12:45 | 54.49121 | -8.47856 | 35468 ft | 453 kts | 311° |
| 2026-05-04 12:45 | 54.51174 | -8.51966 | 35918 ft | 452 kts | 312° |
| 2026-05-04 12:46 | 54.53250 | -8.56061 | 36355 ft | 452 kts | 312° |
| 2026-05-04 12:46 | 54.55319 | -8.60139 | 36737 ft | 452 kts | 312° |
| 2026-05-04 12:46 | 54.57395 | -8.64240 | 37052 ft | 454 kts | 312° |
| 2026-05-04 12:46 | 54.59445 | -8.68300 | 37338 ft | 456 kts | 312° |
| 2026-05-04 12:47 | 54.61533 | -8.72445 | 37628 ft | 457 kts | 311° |
| 2026-05-04 12:47 | 54.63625 | -8.76609 | 37919 ft | 459 kts | 311° |
| 2026-05-04 12:47 | 54.65719 | -8.80785 | 38108 ft | 460 kts | 311° |
| 2026-05-04 12:48 | 54.69910 | -8.89169 | 38108 ft | 461 kts | 311° |
| 2026-05-04 12:48 | 54.74094 | -8.97566 | 38115 ft | 460 kts | 311° |
| 2026-05-04 12:49 | 54.78277 | -9.05994 | 38114 ft | 459 kts | 311° |
| 2026-05-04 12:49 | 54.82425 | -9.14381 | 38112 ft | 459 kts | 311° |
| 2026-05-04 12:50 | 54.86578 | -9.22807 | 38116 ft | 459 kts | 311° |
| 2026-05-04 12:50 | 54.90753 | -9.31305 | 38419 ft | 462 kts | 310° |
| 2026-05-04 12:50 | 54.92829 | -9.35545 | 38868 ft | 458 kts | 310° |
| 2026-05-04 12:51 | 54.94895 | -9.39770 | 39184 ft | 456 kts | 310° |
| 2026-05-04 12:51 | 54.96956 | -9.43992 | 39407 ft | 457 kts | 310° |
| 2026-05-04 12:51 | 54.98991 | -9.48168 | 39580 ft | 458 kts | 310° |
| 2026-05-04 12:51 | 55.01056 | -9.52413 | 39768 ft | 458 kts | 310° |
| 2026-05-04 12:52 | 55.03118 | -9.56660 | 39957 ft | 459 kts | 310° |
| 2026-05-04 12:52 | 55.05179 | -9.60911 | 40104 ft | 459 kts | 310° |
| 2026-05-04 12:52 | 55.07246 | -9.65182 | 40103 ft | 459 kts | 310° |
| 2026-05-04 12:53 | 55.11363 | -9.73715 | 40111 ft | 459 kts | 310° |
| 2026-05-04 12:53 | 55.15447 | -9.82212 | 40109 ft | 458 kts | 310° |
| 2026-05-04 12:54 | 55.19545 | -9.90771 | 40108 ft | 458 kts | 309° |
| 2026-05-04 12:54 | 55.23727 | -9.99212 | 40112 ft | 458 kts | 313° |
| 2026-05-04 12:55 | 55.28313 | -10.06997 | 40112 ft | 458 kts | 317° |
| 2026-05-04 12:55 | 55.33033 | -10.14551 | 40109 ft | 458 kts | 317° |
| 2026-05-04 12:56 | 55.37714 | -10.22055 | 40108 ft | 458 kts | 317° |
| 2026-05-04 12:56 | 55.42430 | -10.29655 | 40106 ft | 458 kts | 316° |
| 2026-05-04 12:57 | 55.46336 | -10.35975 | 40104 ft | 458 kts | 316° |
| 2026-05-04 12:57 | 55.51798 | -10.44844 | 40104 ft | 458 kts | 316° |
| 2026-05-04 12:58 | 55.56483 | -10.52482 | 40107 ft | 458 kts | 316° |
| 2026-05-04 12:58 | 55.60402 | -10.58891 | 40104 ft | 457 kts | 316° |
| 2026-05-04 12:59 | 55.65040 | -10.66498 | 40102 ft | 457 kts | 316° |
| 2026-05-04 12:59 | 55.69711 | -10.74187 | 40103 ft | 457 kts | 316° |
| 2026-05-04 13:00 | 55.74378 | -10.81894 | 40103 ft | 457 kts | 316° |
| 2026-05-04 13:00 | 55.79033 | -10.89611 | 40104 ft | 457 kts | 315° |
| 2026-05-04 13:01 | 55.83651 | -10.97289 | 40101 ft | 457 kts | 315° |
| 2026-05-04 13:01 | 55.88292 | -11.05034 | 40104 ft | 456 kts | 315° |
| 2026-05-04 13:02 | 55.92926 | -11.12793 | 40099 ft | 456 kts | 315° |
| 2026-05-04 13:02 | 55.97556 | -11.20574 | 40102 ft | 456 kts | 315° |
| 2026-05-04 13:03 | 56.02179 | -11.28367 | 40098 ft | 455 kts | 315° |
| 2026-05-04 13:03 | 56.06755 | -11.36109 | 40095 ft | 455 kts | 315° |
| 2026-05-04 13:04 | 56.11357 | -11.43923 | 40097 ft | 454 kts | 315° |
| 2026-05-04 13:04 | 56.15951 | -11.51750 | 40103 ft | 454 kts | 315° |
| 2026-05-04 13:05 | 56.20505 | -11.59535 | 40097 ft | 454 kts | 315° |
| 2026-05-04 13:05 | 56.25087 | -11.67395 | 40093 ft | 454 kts | 314° |
| 2026-05-04 13:06 | 56.29658 | -11.75264 | 40099 ft | 454 kts | 314° |
| 2026-05-04 13:06 | 56.34224 | -11.83152 | 40093 ft | 453 kts | 314° |
| 2026-05-04 13:07 | 56.38774 | -11.91039 | 40096 ft | 453 kts | 314° |
| 2026-05-04 13:07 | 56.43295 | -11.98905 | 40090 ft | 453 kts | 314° |
| 2026-05-04 13:08 | 56.47835 | -12.06829 | 40092 ft | 453 kts | 314° |
| 2026-05-04 13:08 | 56.52370 | -12.14774 | 40095 ft | 452 kts | 314° |
| 2026-05-04 13:09 | 56.56867 | -12.22680 | 40095 ft | 452 kts | 314° |
| 2026-05-04 13:09 | 56.61384 | -12.30649 | 40092 ft | 452 kts | 314° |
| 2026-05-04 13:10 | 56.65889 | -12.38624 | 40093 ft | 451 kts | 314° |
| 2026-05-04 13:10 | 56.70392 | -12.46624 | 40095 ft | 451 kts | 314° |
| 2026-05-04 13:11 | 56.74851 | -12.54575 | 40096 ft | 451 kts | 314° |